Time;durP1;ratioP1;P1;durP2;ratioP2;P2;SDS_P1;SDS_P2;PMS_P1;PMS_P2;Temp;Humidity;BMP_temperature;BMP_pressure;BME280_temperature;BME280_humidity;BME280_pressure;Samples;Min_cycle;Max_cycle;Signal;HPM_P1;HPM_P2
2023/12/15 00:00:21;;;;;;;9.20;6.80;;;;;;;0.64;89.70;100540.95;103230;1258;107185;-67
2023/12/15 00:03:08;;;;;;;8.20;6.50;;;;;;;0.62;89.82;100550.34;103235;1253;137641;-67
2023/12/15 00:05:35;;;;;;;13.70;7.50;;;;;;;0.62;89.93;100553.41;103401;1256;111528;-68
2023/12/15 00:08:02;;;;;;;9.10;6.10;;;;;;;0.58;89.87;100554.41;103157;1256;138148;-69
2023/12/15 00:10:30;;;;;;;8.00;5.50;;;;;;;0.59;89.63;100555.27;103300;1256;97873;-68
2023/12/15 00:12:57;;;;;;;7.90;5.50;;;;;;;0.60;89.55;100559.38;102501;1253;1002949;-68
2023/12/15 00:15:24;;;;;;;9.10;6.00;;;;;;;0.64;89.60;100566.79;103230;1253;138629;-68
2023/12/15 00:17:51;;;;;;;10.00;6.00;;;;;;;0.68;89.30;100576.41;103220;1254;109181;-68
2023/12/15 00:20:18;;;;;;;9.70;6.50;;;;;;;0.71;89.11;100575.77;103161;1256;140934;-69
2023/12/15 00:22:49;;;;;;;8.50;6.40;;;;;;;0.73;89.21;100578.38;103276;1256;98288;-68
2023/12/15 00:25:16;;;;;;;19.50;13.10;;;;;;;0.74;88.93;100583.02;103334;1253;107151;-68
2023/12/15 00:27:43;;;;;;;10.00;7.40;;;;;;;0.73;88.90;100589.34;102435;1256;1003524;-67
2023/12/15 00:30:11;;;;;;;7.90;6.20;;;;;;;0.70;89.33;100597.84;103288;1256;110932;-68
2023/12/15 00:32:38;;;;;;;9.80;6.90;;;;;;;0.72;89.63;100599.22;103504;1253;138352;-68
2023/12/15 00:35:06;;;;;;;9.40;6.50;;;;;;;0.74;89.62;100607.33;103255;1255;99461;-68
2023/12/15 00:37:32;;;;;;;8.30;6.20;;;;;;;0.75;89.39;100611.96;103243;1253;106852;-67
2023/12/15 00:40:00;;;;;;;10.00;7.00;;;;;;;0.78;89.52;100610.61;101299;1256;1003657;-67
2023/12/15 00:42:27;;;;;;;11.50;8.00;;;;;;;0.81;89.33;100612.72;103039;1256;110833;-69
2023/12/15 00:44:56;;;;;;;11.60;7.40;;;;;;;0.82;89.37;100607.59;103117;1253;138727;-69
2023/12/15 00:47:22;;;;;;;11.30;8.40;;;;;;;0.87;89.26;100616.02;103261;1253;97685;-69
2023/12/15 00:49:49;;;;;;;12.60;8.80;;;;;;;0.88;89.31;100622.38;103262;1253;108047;-68
2023/12/15 00:52:16;;;;;;;12.80;9.10;;;;;;;0.89;89.24;100623.08;101657;1256;1003750;-68
2023/12/15 00:54:43;;;;;;;11.10;8.20;;;;;;;0.84;89.18;100626.61;102329;1259;1003621;-67
2023/12/15 00:57:10;;;;;;;10.10;7.60;;;;;;;0.83;89.28;100632.75;102948;1253;1002540;-67
2023/12/15 00:59:37;;;;;;;11.80;8.20;;;;;;;0.82;89.31;100637.55;103918;1253;1002894;-68
2023/12/15 01:02:05;;;;;;;9.00;7.10;;;;;;;0.78;89.21;100638.34;104557;1253;141302;-68
2023/12/15 01:04:32;;;;;;;10.60;7.90;;;;;;;0.80;89.30;100646.41;104587;1253;97048;-68
2023/12/15 01:06:59;;;;;;;11.90;9.10;;;;;;;0.82;89.25;100649.36;103335;1253;111028;-69
2023/12/15 01:09:26;;;;;;;10.40;8.10;;;;;;;0.85;89.39;100656.23;103128;1254;137619;-69
2023/12/15 01:11:53;;;;;;;12.70;9.10;;;;;;;0.86;89.36;100654.19;103300;1252;98285;-68
2023/12/15 01:14:20;;;;;;;12.10;9.30;;;;;;;0.87;89.34;100659.67;103150;1253;138571;-68
2023/12/15 01:16:48;;;;;;;11.70;8.60;;;;;;;0.84;89.34;100660.16;103196;1253;98059;-67
2023/12/15 01:19:17;;;;;;;12.90;9.10;;;;;;;0.80;89.38;100666.61;103151;1253;110690;-69
2023/12/15 01:21:45;;;;;;;11.10;7.70;;;;;;;0.76;89.37;100670.33;103087;1253;138664;-69
2023/12/15 01:24:12;;;;;;;10.60;7.80;;;;;;;0.75;89.53;100672.89;102446;1253;1003473;-68
2023/12/15 01:26:39;;;;;;;10.30;7.80;;;;;;;0.74;89.44;100667.91;103073;1256;138698;-68
2023/12/15 01:29:06;;;;;;;11.50;7.90;;;;;;;0.79;89.66;100665.23;102480;1259;1003803;-67
2023/12/15 01:31:33;;;;;;;12.60;9.00;;;;;;;0.82;89.58;100668.52;103088;1256;110581;-68
2023/12/15 01:34:01;;;;;;;11.50;9.10;;;;;;;0.83;89.45;100668.36;103142;1257;138060;-68
2023/12/15 01:36:28;;;;;;;13.70;9.30;;;;;;;0.82;89.37;100676.74;103224;1253;98449;-68
2023/12/15 01:38:55;;;;;;;12.60;9.50;;;;;;;0.81;89.40;100685.80;102982;1253;137491;-67
2023/12/15 01:41:22;;;;;;;12.90;9.90;;;;;;;0.79;89.28;100696.39;102451;1254;1003240;-67
2023/12/15 01:43:49;;;;;;;15.70;10.10;;;;;;;0.78;89.22;100709.21;103224;1258;111808;-69
2023/12/15 01:46:16;;;;;;;13.60;9.50;;;;;;;0.74;89.35;100708.30;103137;1258;107522;-68
2023/12/15 01:48:43;;;;;;;11.90;8.90;;;;;;;0.73;89.50;100711.54;103181;1254;98406;-68
2023/12/15 01:51:10;;;;;;;11.80;8.80;;;;;;;0.73;89.37;100711.88;102255;1257;1002975;-69
2023/12/15 01:53:37;;;;;;;12.70;8.40;;;;;;;0.73;89.35;100712.05;103148;1254;97920;-68
2023/12/15 01:56:08;;;;;;;13.90;8.30;;;;;;;0.77;89.53;100709.02;103099;1254;138592;-70
2023/12/15 01:58:35;;;;;;;12.20;8.60;;;;;;;0.83;89.68;100713.56;102346;1256;1003000;-68
2023/12/15 02:01:02;;;;;;;13.20;9.50;;;;;;;0.88;89.44;100714.30;101616;1258;1015898;-68
2023/12/15 02:03:29;;;;;;;11.80;9.60;;;;;;;0.87;89.36;100716.00;102292;1258;1016259;-69
2023/12/15 02:05:56;;;;;;;14.40;10.40;;;;;;;0.89;89.36;100721.87;103101;1256;98526;-69
2023/12/15 02:08:23;;;;;;;14.90;10.50;;;;;;;0.90;89.28;100730.09;103057;1259;137786;-69
2023/12/15 02:10:50;;;;;;;14.70;9.30;;;;;;;0.87;89.13;100731.75;103100;1258;106591;-68
2023/12/15 02:13:17;;;;;;;13.20;8.90;;;;;;;0.87;89.19;100732.61;102328;1258;1002975;-68
2023/12/15 02:15:44;;;;;;;12.20;8.80;;;;;;;0.89;89.27;100733.15;103001;1254;138545;-68
2023/12/15 02:18:11;;;;;;;12.70;8.90;;;;;;;0.91;89.37;100735.95;103194;1254;97682;-68
2023/12/15 02:20:38;;;;;;;13.00;9.40;;;;;;;0.97;89.25;100743.56;103019;1258;137902;-68
2023/12/15 02:23:05;;;;;;;13.70;9.60;;;;;;;1.00;89.10;100746.17;103106;1257;107741;-68
2023/12/15 02:25:32;;;;;;;13.10;9.30;;;;;;;1.03;88.97;100752.20;103155;1258;97811;-69
2023/12/15 02:27:59;;;;;;;13.50;9.80;;;;;;;1.04;88.79;100749.65;103091;1256;139021;-68
2023/12/15 02:30:26;;;;;;;14.30;9.70;;;;;;;1.03;88.61;100756.14;103058;1253;97782;-69
2023/12/15 02:32:52;;;;;;;15.80;10.00;;;;;;;0.98;88.48;100753.85;103045;1258;137623;-67
2023/12/15 02:35:20;;;;;;;16.30;10.00;;;;;;;0.96;88.54;100761.18;103059;1254;107726;-68
2023/12/15 02:37:46;;;;;;;13.10;9.70;;;;;;;0.92;88.52;100756.52;103177;1258;98085;-68
2023/12/15 02:40:14;;;;;;;14.20;9.70;;;;;;;0.91;88.57;100760.25;102655;1259;138057;-68
2023/12/15 02:42:40;;;;;;;12.40;8.40;;;;;;;0.87;88.56;100763.43;102352;1258;1003565;-68
2023/12/15 02:45:10;;;;;;;14.10;8.60;;;;;;;0.87;88.51;100762.74;103058;1257;138637;-68
2023/12/15 02:47:37;;;;;;;12.70;8.90;;;;;;;0.88;88.56;100757.62;103579;1255;106937;-68
2023/12/15 02:50:05;;;;;;;12.80;9.30;;;;;;;0.87;88.39;100763.60;103008;1254;139980;-68
2023/12/15 02:52:32;;;;;;;12.00;9.40;;;;;;;0.87;88.42;100769.59;103140;1256;106341;-67
2023/12/15 02:54:58;;;;;;;13.90;9.90;;;;;;;0.87;88.56;100770.79;103129;1257;97787;-68
2023/12/15 02:57:25;;;;;;;14.30;10.10;;;;;;;0.88;88.44;100772.68;103074;1257;137859;-69
2023/12/15 02:59:52;;;;;;;14.10;10.70;;;;;;;0.88;88.62;100773.54;103124;1257;107066;-69
2023/12/15 03:02:19;;;;;;;15.40;10.90;;;;;;;0.88;88.48;100769.27;103124;1256;138083;-67
2023/12/15 03:04:46;;;;;;;14.90;10.40;;;;;;;0.84;88.43;100768.01;103122;1253;108439;-68
2023/12/15 03:07:13;;;;;;;15.90;10.00;;;;;;;0.82;88.35;100774.83;102389;1259;1002882;-67
2023/12/15 03:09:40;;;;;;;12.80;9.20;;;;;;;0.82;88.40;100784.59;103020;1258;138912;-67
2023/12/15 03:12:07;;;;;;;12.90;9.60;;;;;;;0.82;88.39;100811.64;103107;1258;107066;-67
2023/12/15 03:14:34;;;;;;;14.10;9.70;;;;;;;0.83;88.41;100812.16;103043;1258;139489;-68
2023/12/15 03:17:01;;;;;;;13.00;9.50;;;;;;;0.84;88.40;100827.75;103180;1256;108573;-67
2023/12/15 03:19:28;;;;;;;15.30;10.30;;;;;;;0.84;88.20;100808.58;103117;1256;97773;-67
2023/12/15 03:21:55;;;;;;;16.90;11.50;;;;;;;0.81;88.15;100819.14;103042;1258;138014;-67
2023/12/15 03:24:22;;;;;;;14.90;10.80;;;;;;;0.77;87.89;100825.58;103134;1254;108252;-68
2023/12/15 03:26:49;;;;;;;16.50;11.10;;;;;;;0.73;87.80;100837.50;103000;1258;140091;-67
2023/12/15 03:29:15;;;;;;;14.60;9.90;;;;;;;0.65;87.89;100826.58;103128;1259;108118;-67
2023/12/15 03:31:42;;;;;;;15.10;10.60;;;;;;;0.60;87.81;100836.42;103172;1258;97837;-67
2023/12/15 03:34:09;;;;;;;11.80;9.20;;;;;;;0.56;87.92;100834.14;102263;1254;1002535;-67
2023/12/15 03:36:38;;;;;;;15.50;9.80;;;;;;;0.55;87.91;100843.70;103185;1256;107349;-67
2023/12/15 03:39:06;;;;;;;13.20;10.00;;;;;;;0.56;87.91;100842.36;102268;1256;1003198;-67
2023/12/15 03:41:33;;;;;;;14.40;9.90;;;;;;;0.57;87.86;100848.02;103151;1258;105701;-66
2023/12/15 03:44:00;;;;;;;14.40;9.90;;;;;;;0.59;87.72;100851.30;102276;1259;1002831;-68
2023/12/15 03:46:27;;;;;;;14.70;10.20;;;;;;;0.58;87.78;100852.83;102356;1254;1002999;-68
2023/12/15 03:48:53;;;;;;;17.10;11.30;;;;;;;0.60;87.75;100855.24;103163;1256;107044;-68
2023/12/15 03:51:20;;;;;;;14.70;10.20;;;;;;;0.58;87.80;100853.68;103083;1256;138505;-66
2023/12/15 03:53:47;;;;;;;16.20;10.90;;;;;;;0.57;87.74;100856.21;103147;1257;108275;-68
2023/12/15 03:56:14;;;;;;;15.50;10.10;;;;;;;0.56;87.75;100860.14;103102;1259;140622;-67
2023/12/15 03:58:41;;;;;;;12.80;9.90;;;;;;;0.55;87.98;100864.23;103174;1257;110172;-67
2023/12/15 04:01:08;;;;;;;13.00;9.50;;;;;;;0.58;88.08;100866.86;103145;1259;107986;-66
2023/12/15 04:03:35;;;;;;;13.60;9.60;;;;;;;0.62;88.12;100874.63;103068;1256;140075;-66
2023/12/15 04:06:01;;;;;;;13.90;10.10;;;;;;;0.68;87.78;100878.81;103163;1256;108401;-66
2023/12/15 04:08:29;;;;;;;12.90;9.20;;;;;;;0.74;87.83;100881.83;102277;1254;1002665;-67
2023/12/15 04:10:56;;;;;;;14.20;10.10;;;;;;;0.81;87.80;100883.16;102994;1260;111129;-66
2023/12/15 04:13:23;;;;;;;18.00;11.20;;;;;;;0.86;87.63;100888.90;102273;1259;1003166;-66
2023/12/15 04:15:50;;;;;;;14.30;10.80;;;;;;;0.89;87.63;100889.48;103057;1259;138080;-66
2023/12/15 04:18:17;;;;;;;17.10;11.80;;;;;;;0.92;87.28;100893.64;103125;1256;106774;-67
2023/12/15 04:20:45;;;;;;;16.50;11.70;;;;;;;0.88;87.24;100889.13;103061;1253;138375;-67
2023/12/15 04:23:12;;;;;;;19.20;12.20;;;;;;;0.88;87.06;100891.83;103177;1256;109917;-67
2023/12/15 04:25:39;;;;;;;16.50;11.30;;;;;;;0.84;87.21;100891.42;103070;1258;106659;-67
2023/12/15 04:28:05;;;;;;;15.20;10.70;;;;;;;0.85;87.28;100904.80;102972;1256;138538;-67
2023/12/15 04:30:33;;;;;;;15.30;10.60;;;;;;;0.83;87.23;100900.50;103196;1259;107360;-67
2023/12/15 04:33:00;;;;;;;18.50;11.80;;;;;;;0.84;87.14;100898.96;103080;1257;138505;-67
2023/12/15 04:35:27;;;;;;;18.60;11.30;;;;;;;0.86;87.27;100901.73;103181;1258;113516;-67
2023/12/15 04:37:54;;;;;;;16.00;10.90;;;;;;;0.87;87.17;100908.08;103036;1255;107792;-67
2023/12/15 04:40:21;;;;;;;14.40;10.90;;;;;;;0.88;87.32;100916.67;102279;1259;1002804;-67
2023/12/15 04:42:47;;;;;;;17.30;11.20;;;;;;;0.93;87.44;100918.66;103151;1259;108928;-67
2023/12/15 04:45:14;;;;;;;17.30;11.70;;;;;;;0.95;87.27;100924.34;103051;1258;137868;-67
2023/12/15 04:47:41;;;;;;;16.70;11.90;;;;;;;0.96;87.04;100920.59;102454;1257;1002976;-67
2023/12/15 04:50:10;;;;;;;18.00;11.90;;;;;;;0.97;87.09;100921.46;103045;1254;138725;-68
2023/12/15 04:52:37;;;;;;;15.10;11.00;;;;;;;0.99;86.97;100922.70;103384;1257;98492;-67
2023/12/15 04:55:05;;;;;;;16.70;11.90;;;;;;;0.99;86.93;100927.48;103153;1255;107223;-69
2023/12/15 04:57:31;;;;;;;16.10;11.20;;;;;;;0.96;86.68;100928.12;102785;1254;1003133;-67
2023/12/15 04:59:59;;;;;;;15.30;10.70;;;;;;;0.96;86.71;100928.30;103258;1255;111669;-67
2023/12/15 05:02:26;;;;;;;13.70;10.10;;;;;;;0.96;86.82;100936.51;103066;1256;138692;-67
2023/12/15 05:04:53;;;;;;;17.70;10.90;;;;;;;0.98;86.80;100941.16;103191;1258;97700;-68
2023/12/15 05:07:20;;;;;;;17.30;10.40;;;;;;;1.02;86.99;100947.05;103191;1259;107437;-67
2023/12/15 05:09:50;;;;;;;17.60;10.80;;;;;;;1.09;86.99;100947.19;103127;1259;139943;-68
2023/12/15 05:12:17;;;;;;;15.30;11.20;;;;;;;1.13;86.88;100949.16;103178;1256;111260;-67
2023/12/15 05:14:43;;;;;;;15.00;10.60;;;;;;;1.16;86.65;100948.52;103088;1256;137825;-67
2023/12/15 05:17:11;;;;;;;17.50;11.00;;;;;;;1.18;86.51;100952.48;102403;1257;1003304;-67
2023/12/15 05:19:38;;;;;;;15.70;10.90;;;;;;;1.19;86.48;100952.16;103054;1256;107921;-67
2023/12/15 05:22:05;;;;;;;14.20;10.90;;;;;;;1.22;86.29;100954.42;103081;1259;138466;-68
2023/12/15 05:24:34;;;;;;;17.50;11.10;;;;;;;1.19;86.27;100962.61;102426;1257;1003450;-67
2023/12/15 05:27:02;;;;;;;15.20;10.60;;;;;;;1.17;86.33;100967.20;103046;1257;138704;-67
2023/12/15 05:29:32;;;;;;;15.50;10.40;;;;;;;1.19;86.42;100968.60;103219;1258;98463;-67
2023/12/15 05:31:59;;;;;;;15.70;10.60;;;;;;;1.20;86.15;100964.67;102354;1259;1002633;-68
2023/12/15 05:34:26;;;;;;;16.40;10.90;;;;;;;1.21;86.12;100962.30;103211;1258;98449;-67
2023/12/15 05:36:53;;;;;;;16.70;11.10;;;;;;;1.24;86.20;100967.13;103211;1259;111251;-69
2023/12/15 05:39:19;;;;;;;15.60;11.80;;;;;;;1.31;86.36;100969.16;103043;1254;138436;-66
2023/12/15 05:41:46;;;;;;;16.40;11.50;;;;;;;1.34;86.24;100975.88;103226;1259;97825;-67
2023/12/15 05:44:13;;;;;;;18.50;12.30;;;;;;;1.37;86.05;100972.50;102355;1255;1002631;-66
2023/12/15 05:46:44;;;;;;;15.90;11.80;;;;;;;1.34;85.64;100973.31;103164;1257;97704;-67
2023/12/15 05:49:11;;;;;;;16.30;11.70;;;;;;;1.28;85.56;100978.17;103133;1259;110967;-67
2023/12/15 05:51:39;;;;;;;18.30;11.70;;;;;;;1.25;85.85;100978.80;102927;1259;139560;-66
2023/12/15 05:54:06;;;;;;;17.60;11.50;;;;;;;1.24;85.79;100982.88;103102;1257;98016;-67
2023/12/15 05:56:33;;;;;;;17.50;11.00;;;;;;;1.22;85.93;100984.58;103015;1256;139966;-67
2023/12/15 05:59:00;;;;;;;15.30;11.10;;;;;;;1.21;85.93;100988.67;103004;1260;97803;-67
2023/12/15 06:01:27;;;;;;;16.30;11.50;;;;;;;1.23;86.04;100990.75;103191;1259;111172;-67
2023/12/15 06:03:54;;;;;;;18.70;12.10;;;;;;;1.24;85.96;100992.31;103071;1259;138487;-67
2023/12/15 06:06:20;;;;;;;20.60;12.50;;;;;;;1.29;86.24;100992.42;103202;1257;98450;-67
2023/12/15 06:08:47;;;;;;;18.50;12.90;;;;;;;1.32;86.08;100993.49;103112;1259;137731;-68
2023/12/15 06:11:14;;;;;;;20.60;13.50;;;;;;;1.31;85.86;100998.45;102546;1259;1002489;-68
2023/12/15 06:13:41;;;;;;;19.70;13.60;;;;;;;1.31;85.83;101004.62;103245;1259;110943;-68
2023/12/15 06:16:17;;;;;;;20.00;13.80;;;;;;;1.25;85.73;101004.65;103079;1254;138285;-68
2023/12/15 06:18:43;;;;;;;21.70;13.70;;;;;;;1.16;85.41;101007.77;103181;1255;97806;-67
2023/12/15 06:21:19;;;;;;;19.80;12.70;;;;;;;1.13;85.49;101010.47;103111;1257;138301;-67
2023/12/15 06:23:46;;;;;;;21.80;13.50;;;;;;;1.11;85.53;101011.64;103169;1257;97908;-66
2023/12/15 06:26:19;;;;;;;24.10;13.40;;;;;;;1.10;85.61;101020.35;103083;1259;138858;-65
2023/12/15 06:28:46;;;;;;;17.70;12.10;;;;;;;1.07;85.52;101022.67;103138;1259;108081;-68
2023/12/15 06:31:13;;;;;;;17.60;12.50;;;;;;;1.06;85.60;101030.54;103204;1259;98322;-68
2023/12/15 06:33:41;;;;;;;19.60;13.10;;;;;;;1.12;85.73;101032.90;103060;1255;138509;-68
2023/12/15 06:36:10;;;;;;;19.20;13.40;;;;;;;1.20;85.79;101036.61;103174;1255;97792;-67
2023/12/15 06:38:39;;;;;;;20.00;13.30;;;;;;;1.25;85.70;101038.41;103516;1256;138417;-70
2023/12/15 06:41:07;;;;;;;19.80;14.10;;;;;;;1.28;85.64;101039.52;103194;1254;107819;-69
2023/12/15 06:43:34;;;;;;;22.70;13.70;;;;;;;1.29;85.56;101038.34;103208;1258;98303;-69
2023/12/15 06:46:00;;;;;;;22.20;15.20;;;;;;;1.28;85.33;101039.70;103054;1254;138641;-68
2023/12/15 06:48:27;;;;;;;23.60;15.60;;;;;;;1.28;85.24;101043.46;103223;1259;97820;-68
2023/12/15 06:50:54;;;;;;;23.50;15.00;;;;;;;1.27;85.22;101053.37;103117;1260;137663;-69
2023/12/15 06:53:22;;;;;;;20.40;14.00;;;;;;;1.24;85.02;101054.48;103137;1259;107605;-70
2023/12/15 06:55:49;;;;;;;21.00;13.20;;;;;;;1.22;84.95;101053.45;103264;1255;100015;-69
2023/12/15 06:58:16;;;;;;;22.10;13.10;;;;;;;1.24;85.02;101054.32;103063;1259;138576;-69
2023/12/15 07:00:43;;;;;;;22.30;14.40;;;;;;;1.26;84.96;101054.02;103197;1258;97686;-69
2023/12/15 07:03:10;;;;;;;20.90;14.50;;;;;;;1.33;85.14;101057.60;103116;1259;137668;-68
2023/12/15 07:05:37;;;;;;;24.50;14.70;;;;;;;1.41;85.23;101063.38;102410;1254;1003800;-69
2023/12/15 07:08:04;;;;;;;22.00;15.30;;;;;;;1.45;84.96;101063.48;103083;1259;138277;-68
2023/12/15 07:10:32;;;;;;;22.40;14.50;;;;;;;1.46;84.71;101065.55;102961;1254;108777;-68
2023/12/15 07:12:59;;;;;;;21.20;14.90;;;;;;;1.44;84.54;101071.69;103070;1257;97798;-69
2023/12/15 07:15:28;;;;;;;25.10;15.50;;;;;;;1.42;84.37;101075.73;102197;1257;1002898;-68
2023/12/15 07:17:54;;;;;;;21.90;14.40;;;;;;;1.38;84.68;101079.61;102402;1259;1003187;-68
2023/12/15 07:20:24;;;;;;;21.10;14.10;;;;;;;1.37;84.60;101082.49;102994;1254;138998;-69
2023/12/15 07:22:51;;;;;;;20.60;14.20;;;;;;;1.33;84.41;101080.73;102355;1257;1003519;-68
2023/12/15 07:25:18;;;;;;;21.60;14.30;;;;;;;1.31;84.63;101086.86;103046;1254;97676;-68
2023/12/15 07:27:45;;;;;;;19.40;13.40;;;;;;;1.32;84.66;101092.69;103060;1260;138310;-68
2023/12/15 07:30:13;;;;;;;27.20;15.40;;;;;;;1.32;84.78;101096.81;103102;1258;110418;-69
2023/12/15 07:32:40;;;;;;;20.70;14.00;;;;;;;1.34;84.73;101096.17;102115;1257;1002709;-68
2023/12/15 07:35:09;;;;;;;21.50;14.80;;;;;;;1.36;84.67;101104.42;103212;1254;107385;-68
2023/12/15 07:37:51;;;;;;;23.00;14.60;;;;;;;1.34;84.49;101103.70;103014;1257;97797;-69
2023/12/15 07:40:19;;;;;;;22.60;14.80;;;;;;;1.34;84.41;101104.21;103062;1257;112091;-68
2023/12/15 07:42:45;;;;;;;22.00;14.70;;;;;;;1.35;84.69;101104.23;102798;1269;108217;-67
2023/12/15 07:45:14;;;;;;;23.50;15.40;;;;;;;1.35;84.59;101099.61;102994;1260;138021;-69
2023/12/15 07:47:41;;;;;;;23.20;14.60;;;;;;;1.37;84.30;101103.76;103176;1260;108260;-69
2023/12/15 07:50:10;;;;;;;20.30;13.50;;;;;;;1.35;84.31;101109.89;102795;1257;138680;-69
2023/12/15 07:52:36;;;;;;;21.70;13.30;;;;;;;1.37;84.41;101115.23;104682;1254;110097;-67
2023/12/15 07:55:03;;;;;;;20.90;13.20;;;;;;;1.41;84.47;101117.02;104571;1257;107123;-69
2023/12/15 07:57:33;;;;;;;21.40;13.40;;;;;;;1.48;84.68;101117.49;103337;1257;138350;-68
2023/12/15 08:00:00;;;;;;;22.90;14.20;;;;;;;1.53;84.75;101121.37;102497;1254;1002516;-69
2023/12/15 08:02:37;;;;;;;20.00;13.70;;;;;;;1.59;84.60;101123.35;103093;1254;138282;-68
2023/12/15 08:05:04;;;;;;;23.80;15.10;;;;;;;1.60;84.27;101128.34;103153;1257;111180;-68
2023/12/15 08:07:31;;;;;;;23.80;15.80;;;;;;;1.61;84.43;101128.88;102437;1260;1003330;-68
2023/12/15 08:09:58;;;;;;;25.70;16.40;;;;;;;1.60;84.19;101138.45;103200;1254;138152;-69
2023/12/15 08:12:25;;;;;;;23.40;15.90;;;;;;;1.58;84.50;101140.80;102458;1257;1003828;-69
2023/12/15 08:14:52;;;;;;;25.40;16.30;;;;;;;1.55;84.38;101144.02;102391;1257;1003226;-69
2023/12/15 08:17:18;;;;;;;22.30;15.30;;;;;;;1.52;84.33;101147.04;102400;1254;1003450;-69
2023/12/15 08:19:45;;;;;;;23.40;15.30;;;;;;;1.50;84.55;101146.16;102221;1258;1003061;-69
2023/12/15 08:22:13;;;;;;;21.90;14.40;;;;;;;1.51;84.89;101147.21;103006;1254;138471;-69
2023/12/15 08:24:40;;;;;;;21.00;14.80;;;;;;;1.51;84.97;101147.20;103096;1254;107756;-69
2023/12/15 08:27:07;;;;;;;23.50;15.20;;;;;;;1.48;85.07;101149.20;102928;1254;138059;-68
2023/12/15 08:29:34;;;;;;;23.30;16.50;;;;;;;1.51;85.27;101153.56;102303;1257;1016154;-68
2023/12/15 08:32:01;;;;;;;28.60;18.30;;;;;;;1.52;85.73;101156.32;103021;1257;139172;-69
2023/12/15 08:34:28;;;;;;;26.10;17.30;;;;;;;1.51;85.74;101158.87;101453;1255;1003481;-69
2023/12/15 08:36:55;;;;;;;24.80;17.10;;;;;;;1.47;85.95;101162.74;103213;1254;107698;-69
2023/12/15 08:39:22;;;;;;;24.80;16.40;;;;;;;1.44;86.17;101159.93;102273;1255;1003419;-69
2023/12/15 08:41:49;;;;;;;24.30;17.00;;;;;;;1.42;86.33;101166.21;103668;1254;111443;-68
2023/12/15 08:44:16;;;;;;;27.60;17.50;;;;;;;1.41;86.65;101169.28;103428;1256;138863;-68
2023/12/15 08:46:55;;;;;;;27.80;17.90;;;;;;;1.47;87.34;101175.08;103176;1254;98324;-68
2023/12/15 08:49:22;;;;;;;27.80;18.30;;;;;;;1.56;87.25;101169.92;102104;1258;1003706;-68
2023/12/15 08:51:49;;;;;;;29.00;19.10;;;;;;;1.68;87.33;101172.21;103079;1254;138188;-69
2023/12/15 08:54:17;;;;;;;29.10;19.20;;;;;;;1.74;87.16;101170.61;103218;1254;111240;-67
2023/12/15 08:56:45;;;;;;;29.90;20.20;;;;;;;1.89;87.43;101170.54;103122;1257;139680;-68
2023/12/15 08:59:12;;;;;;;28.90;19.50;;;;;;;2.02;87.06;101172.66;102439;1257;1003509;-67
2023/12/15 09:01:39;;;;;;;31.30;20.40;;;;;;;2.14;87.19;101172.68;103209;1258;108046;-68
2023/12/15 09:04:06;;;;;;;32.80;19.20;;;;;;;2.20;86.94;101186.35;103110;1257;137992;-67
2023/12/15 09:06:33;;;;;;;30.20;18.40;;;;;;;2.26;86.72;101195.55;103180;1254;110509;-68
2023/12/15 09:09:07;;;;;;;28.30;18.90;;;;;;;2.32;86.39;101205.58;103018;1257;138596;-68
2023/12/15 09:11:35;;;;;;;28.80;19.40;;;;;;;2.33;86.35;101200.13;103154;1254;98184;-68
2023/12/15 09:14:02;;;;;;;30.70;19.30;;;;;;;2.45;86.22;101200.81;103096;1254;139854;-72
2023/12/15 09:16:29;;;;;;;29.30;19.50;;;;;;;2.53;86.28;101198.38;103157;1254;97687;-71
2023/12/15 09:18:56;;;;;;;27.80;18.80;;;;;;;2.64;85.97;101204.20;102292;1254;1003202;-72
2023/12/15 09:21:23;;;;;;;27.80;19.20;;;;;;;2.65;85.70;101213.16;102960;1257;138249;-73
2023/12/15 09:23:53;;;;;;;30.10;19.10;;;;;;;2.63;85.49;101217.59;103163;1254;97835;-73
2023/12/15 09:26:20;;;;;;;32.50;20.70;;;;;;;2.57;85.20;101222.83;103062;1254;138564;-73
2023/12/15 09:28:47;;;;;;;31.40;20.10;;;;;;;2.48;85.26;101229.88;103220;1254;95987;-74
2023/12/15 09:31:14;;;;;;;28.70;18.20;;;;;;;2.45;85.46;101234.64;103198;1257;110608;-74
2023/12/15 09:33:41;;;;;;;25.60;18.60;;;;;;;2.42;85.32;101234.43;103108;1254;139543;-71
2023/12/15 09:36:10;;;;;;;29.10;18.70;;;;;;;2.43;85.71;101232.73;103243;1254;98450;-70
2023/12/15 09:38:37;;;;;;;30.60;20.10;;;;;;;2.46;85.77;101234.13;102457;1252;1003011;-71
2023/12/15 09:41:05;;;;;;;29.20;19.60;;;;;;;2.49;85.73;101230.06;103171;1257;97672;-72
2023/12/15 09:43:32;;;;;;;31.00;20.30;;;;;;;2.51;85.63;101230.96;103192;1254;111286;-72
2023/12/15 09:46:00;;;;;;;31.10;19.80;;;;;;;2.52;85.55;101231.50;102284;1258;1003349;-73
2023/12/15 09:48:29;;;;;;;30.50;21.20;;;;;;;2.53;85.63;101227.58;103289;1257;97775;-74
2023/12/15 09:51:02;;;;;;;30.40;19.50;;;;;;;2.53;85.76;101229.30;102962;1254;140757;-74
2023/12/15 09:53:34;;;;;;;30.20;19.40;;;;;;;2.56;85.61;101227.11;103225;1254;97843;-74
2023/12/15 09:56:02;;;;;;;29.10;18.70;;;;;;;2.61;85.76;101225.98;102407;1257;1002887;-75
2023/12/15 09:58:30;;;;;;;29.90;19.50;;;;;;;2.65;85.85;101220.71;103161;1257;107723;-75
2023/12/15 10:00:57;;;;;;;26.60;19.50;;;;;;;2.70;86.00;101222.36;102490;1257;1003099;-74
2023/12/15 10:03:24;;;;;;;32.80;21.20;;;;;;;2.72;85.75;101218.77;103068;1254;138346;-75
2023/12/15 10:05:51;;;;;;;35.80;22.00;;;;;;;2.77;85.96;101215.76;103243;1254;97844;-74
2023/12/15 10:08:22;;;;;;;32.90;22.20;;;;;;;2.79;85.45;101216.98;103105;1254;137898;-74
2023/12/15 10:10:50;;;;;;;33.70;21.90;;;;;;;2.75;85.17;101229.46;101653;1254;1003552;-74
2023/12/15 10:13:17;;;;;;;33.70;21.90;;;;;;;2.66;85.29;101239.95;103297;1254;97803;-73
2023/12/15 10:15:45;;;;;;;34.20;21.70;;;;;;;2.64;85.67;101246.98;103170;1254;139461;-75
2023/12/15 10:18:14;;;;;;;30.70;20.50;;;;;;;2.63;85.74;101236.65;103113;1254;97791;-74
2023/12/15 10:20:43;;;;;;;31.40;19.90;;;;;;;2.60;85.68;101236.94;102337;1255;1003072;-75
2023/12/15 10:23:10;;;;;;;30.50;20.50;;;;;;;2.63;85.89;101224.12;103180;1254;107651;-75
2023/12/15 10:25:37;;;;;;;34.70;22.90;;;;;;;2.67;85.78;101216.11;103313;1257;97939;-75
2023/12/15 10:28:05;;;;;;;34.50;23.30;;;;;;;2.74;85.96;101238.38;103426;1254;137751;-75
2023/12/15 10:30:32;;;;;;;32.20;23.30;;;;;;;2.74;85.69;101238.73;102288;1257;1003427;-76
2023/12/15 10:33:00;;;;;;;34.10;23.80;;;;;;;2.71;85.72;101250.36;103062;1260;139378;-75
2023/12/15 10:35:29;;;;;;;35.00;23.80;;;;;;;2.65;85.46;101252.66;103236;1254;106800;-75
2023/12/15 10:37:57;;;;;;;38.30;23.90;;;;;;;2.61;85.81;101250.35;103102;1255;97680;-74
2023/12/15 10:40:25;;;;;;;31.80;22.60;;;;;;;2.64;86.00;101252.80;103246;1253;108187;-74
2023/12/15 10:42:53;;;;;;;31.30;21.90;;;;;;;2.62;85.94;101254.15;103479;1254;97867;-75
2023/12/15 10:45:22;;;;;;;33.70;21.90;;;;;;;2.61;86.07;101250.02;101711;1257;1015281;-74
2023/12/15 10:47:49;;;;;;;34.10;22.50;;;;;;;2.64;86.07;101249.20;103381;1257;107782;-75
2023/12/15 10:50:16;;;;;;;32.10;22.60;;;;;;;2.68;86.01;101256.13;104278;1253;137152;-76
2023/12/15 10:52:47;;;;;;;33.40;22.60;;;;;;;2.71;85.95;101254.83;103259;1254;106731;-75
2023/12/15 10:55:14;;;;;;;32.30;23.00;;;;;;;2.77;86.30;101245.80;103265;1254;97767;-73
2023/12/15 10:57:41;;;;;;;35.30;23.10;;;;;;;2.78;86.12;101246.52;103394;1257;137591;-74
2023/12/15 11:00:11;;;;;;;38.40;24.90;;;;;;;2.78;85.81;101251.15;103252;1254;107810;-74
2023/12/15 11:02:40;;;;;;;35.60;24.60;;;;;;;2.75;85.69;101243.55;103513;1257;138489;-74
2023/12/15 11:05:09;;;;;;;34.20;23.10;;;;;;;2.71;85.62;101229.06;104173;1254;106759;-76